Lone Mountain, TN

12:15 PM EDT die 01o October, anno 2014 (GMT -0400)
Middlesboro | Change Station
CLOSE
Current Station
Airport
Location: Middlesboro,
Elevation: 1155 ft
Nearby Weather Stations

Elev 1155 ft 36.61 °N, 83.74 °W | Updated 20 minutes ago

Clear
Serena
68 °F
Feels Like 68 °F
N
0
Ventus Variabilis Ventus from Aquilo

Hodie
High -- | Low -- °F
--% Chance of Precip.
Yesterday
High -- | Low -- °F
Precip. -- in
7:29 AM 7:17 PM
Waxing Crescent, 49% visible
Pressio 30.06 in
Visibilitas 10.0 milia passuum
Clouds Serena
Frigus in quo Ros apparet 59 °F
Umor 72%
Rainfall 0.00 in
Snow Depth Not available.
UV 6 out of 12
Pollen 4.90 out of 12
Air Quality Not available.
Flu Activity Not available.
METAR K1A6 011555Z AUTO 00000KT 10SM CLR 20/15 A3006 RMK AO2 T02030151

More Conditions Fewer Conditions

Pressio 30.06 in
Visibilitas 10.0 milia passuum
Clouds Serena
Frigus in quo Ros apparet 59 °F
Umor 72%
Rainfall 0.00 in
Snow Depth Not available.
UV 6 out of 12
Pollen 4.90 out of 12
Air Quality Not available.
Flu Activity Not available.
METAR K1A6 011555Z AUTO 00000KT 10SM CLR 20/15 A3006 RMK AO2 T02030151

More Conditions Fewer Conditions

10-Day Weather Forecast

Almanac

Astronomy

Oct. 01, 2014 Rise Set
Actual Time 7:29 AM EDT 7:17 PM EDT
Civil Twilight 7:03 AM EDT 7:43 PM EDT
Nautical Twilight 6:33 AM EDT 8:13 PM EDT
Astronomical Twilight 6:03 AM EDT 8:43 PM EDT
Moon 2:22 PM EDT Nulla Occasus Lunae
Length Of Visible Light 12h 39m
Length of Day
11h 48m
Tomorrow will be 2m 18s shorter.
Waxing Crescent, 49% of the Moon is Illuminated
Hodie
Waxing Crescent
Oct 1
First Quarter
Oct 8
Full
Oct 15
Last Quarter
Oct 23
New

Today's Extremes

State Highs State Lows

Community

WunderPhotos

Upload Photos

1,757,976 photos uploaded!

WunderBlogs® & News

Nearby

Snow Depth

Station Depth Elevation
No new snow has been reported.

Earthquake Activity

City Distance Mag. Time & Date
No recent earthquake activity has been reported nearby.
Minimum magnitude displayed is 2.5.

Coastal Water Temperatures

Locus Calor
No Stations Reporting

Nearby Weather Stations